Time;durP1;ratioP1;P1;durP2;ratioP2;P2;SDS_P1;SDS_P2;PMS_P1;PMS_P2;Temp;Humidity;BMP_temperature;BMP_pressure;BME280_temperature;BME280_humidity;BME280_pressure;Samples;Min_cycle;Max_cycle;Signal;HPM_P1;HPM_P2
2023/05/16 00:02:17;;;;;;;;;;;;;;;14.29;58.97;100705.41;4909685;29;6784;-80
2023/05/16 00:04:44;;;;;;;;;;;;;;;14.24;59.59;100704.34;4912876;29;6800;-84
2023/05/16 00:07:10;;;;;;;;;;;;;;;14.21;59.33;100711.97;4907989;29;6804;-85
2023/05/16 00:09:36;;;;;;;;;;;;;;;14.15;59.19;100710.03;4909147;29;6900;-78
2023/05/16 00:12:01;;;;;;;;;;;;;;;14.12;59.51;100714.19;4897602;29;6791;-85
2023/05/16 00:14:27;;;;;;;;;;;;;;;14.07;59.43;100710.53;4920048;28;6825;-82
2023/05/16 00:16:53;;;;;;;;;;;;;;;14.00;59.29;100707.75;4908485;29;6839;-84
2023/05/16 00:19:19;;;;;;;;;;;;;;;13.97;58.56;100717.91;4911222;29;8509;-84
2023/05/16 00:21:45;;;;;;;;;;;;;;;13.90;59.38;100723.63;4917722;28;6777;-83
2023/05/16 00:24:11;;;;;;;;;;;;;;;13.85;58.95;100712.28;4918299;28;6828;-81
2023/05/16 00:26:36;;;;;;;;;;;;;;;13.83;59.33;100721.66;4916596;29;8483;-83
2023/05/16 00:29:02;;;;;;;;;;;;;;;13.79;58.74;100715.50;4913648;29;8367;-84
2023/05/16 00:31:28;;;;;;;;;;;;;;;13.78;59.47;100723.16;4929123;29;6848;-80
2023/05/16 00:33:54;;;;;;;;;;;;;;;13.74;58.77;100719.59;4908395;29;6971;-83
2023/05/16 00:36:20;;;;;;;;;;;;;;;13.70;58.79;100723.72;4912910;29;7009;-80
2023/05/16 00:38:46;;;;;;;;;;;;;;;13.69;58.75;100723.69;4910755;29;6804;-82
2023/05/16 00:41:12;;;;;;;;;;;;;;;13.66;59.00;100719.28;4894493;29;8457;-77
2023/05/16 00:43:39;;;;;;;;;;;;;;;13.66;59.25;100713.25;4932130;28;6797;-79
2023/05/16 00:46:05;;;;;;;;;;;;;;;13.65;58.58;100724.38;4933718;29;6865;-77
2023/05/16 00:48:32;;;;;;;;;;;;;;;13.64;58.92;100720.91;4900323;29;8418;-78
2023/05/16 00:50:58;;;;;;;;;;;;;;;13.62;58.83;100725.13;4902465;28;8511;-79
2023/05/16 00:53:24;;;;;;;;;;;;;;;13.59;58.70;100723.31;4932263;29;7073;-80
2023/05/16 00:55:51;;;;;;;;;;;;;;;13.58;59.14;100723.25;4915558;29;6919;-77
2023/05/16 00:58:18;;;;;;;;;;;;;;;13.57;58.39;100724.06;4896934;29;6963;-80
2023/05/16 01:00:46;;;;;;;;;;;;;;;13.58;58.22;100726.72;4912471;29;6865;-83
2023/05/16 01:03:12;;;;;;;;;;;;;;;13.60;58.88;100721.59;4912320;29;6822;-76
2023/05/16 01:05:38;;;;;;;;;;;;;;;13.60;58.52;100731.91;4925092;29;8563;-76
2023/05/16 01:08:03;;;;;;;;;;;;;;;13.61;58.50;100736.22;5028962;23;6792;-77
2023/05/16 01:10:58;;;;;;;;;;;;;;;13.60;58.84;100732.78;5153467;23;9134;-77
2023/05/16 01:16:12;;;;;;;;;;;;;;;13.61;58.47;100738.81;5319429;23;6979;-76
2023/05/16 01:21:35;;;;;;;;;;;;;;;13.60;58.16;100737.94;4682767;23;7293;-74
2023/05/16 01:24:33;;;;;;;;;;;;;;;13.59;58.23;100733.63;4957408;28;7222;-74
2023/05/16 01:27:00;;;;;;;;;;;;;;;13.60;58.54;100744.78;4958605;28;7247;-76
2023/05/16 01:29:26;;;;;;;;;;;;;;;13.59;58.51;100753.31;4968363;28;7001;-74
2023/05/16 01:31:52;;;;;;;;;;;;;;;13.57;58.29;100748.13;4971214;28;6952;-73
2023/05/16 01:34:17;;;;;;;;;;;;;;;13.56;58.11;100751.50;4963608;28;6983;-75
2023/05/16 01:36:46;;;;;;;;;;;;;;;13.55;57.79;100756.59;4988202;28;8410;-77
2023/05/16 01:39:46;;;;;;;;;;;;;;;13.50;58.35;100751.25;4978861;28;6804;-75
2023/05/16 01:42:14;;;;;;;;;;;;;;;13.47;58.51;100754.56;4976408;28;7259;-75
2023/05/16 01:45:02;;;;;;;;;;;;;;;13.44;58.38;100750.97;4970820;28;7014;-74
2023/05/16 01:47:32;;;;;;;;;;;;;;;13.39;58.06;100753.34;4959925;28;7357;-78
2023/05/16 01:50:13;;;;;;;;;;;;;;;13.38;57.98;100759.31;4961762;28;8512;-77
2023/05/16 01:52:49;;;;;;;;;;;;;;;13.36;58.44;100762.63;4976070;28;6970;-75
2023/05/16 01:55:28;;;;;;;;;;;;;;;13.34;57.94;100767.72;4993134;28;6999;-74
2023/05/16 01:57:55;;;;;;;;;;;;;;;13.30;58.40;100776.13;4978363;28;7292;-73
2023/05/16 02:00:22;;;;;;;;;;;;;;;13.29;58.13;100764.06;4962576;28;6799;-74
2023/05/16 02:02:47;;;;;;;;;;;;;;;13.27;57.64;100766.56;4952120;28;6985;-76
2023/05/16 02:05:13;;;;;;;;;;;;;;;13.26;58.28;100776.81;4957179;28;7870;-74
2023/05/16 02:07:40;;;;;;;;;;;;;;;13.26;57.59;100784.53;4959942;28;6788;-76
2023/05/16 02:10:06;;;;;;;;;;;;;;;13.24;58.39;100786.16;4938393;28;7166;-76
2023/05/16 02:12:32;;;;;;;;;;;;;;;13.23;57.78;100789.53;4954598;28;6816;-76
2023/05/16 02:14:58;;;;;;;;;;;;;;;13.20;57.30;100787.72;4964465;28;6768;-76
2023/05/16 02:17:24;;;;;;;;;;;;;;;13.17;57.32;100785.88;4948434;28;6833;-76
2023/05/16 02:19:50;;;;;;;;;;;;;;;13.15;57.52;100791.78;4962186;28;6970;-76
2023/05/16 02:22:16;;;;;;;;;;;;;;;13.12;57.41;100786.50;4963057;28;7894;-76
2023/05/16 02:24:41;;;;;;;;;;;;;;;13.09;57.57;100792.41;4974032;28;7153;-75
2023/05/16 02:27:07;;;;;;;;;;;;;;;13.04;57.12;100796.47;4970065;28;7427;-76
2023/05/16 02:29:33;;;;;;;;;;;;;;;13.01;56.98;100799.78;4978316;28;6958;-76
2023/05/16 02:31:59;;;;;;;;;;;;;;;12.98;57.03;100809.06;4962428;28;7019;-76
2023/05/16 02:34:24;;;;;;;;;;;;;;;12.95;56.85;100812.38;4975387;28;6800;-76
2023/05/16 02:36:50;;;;;;;;;;;;;;;12.92;57.31;100813.09;4962322;28;7187;-78
2023/05/16 02:39:16;;;;;;;;;;;;;;;12.88;57.62;100808.63;4945948;28;6967;-76
2023/05/16 02:41:41;;;;;;;;;;;;;;;12.86;57.02;100817.09;4963219;28;7041;-76
2023/05/16 02:44:07;;;;;;;;;;;;;;;12.84;57.69;100814.44;4974987;28;7272;-76
2023/05/16 02:46:35;;;;;;;;;;;;;;;12.80;56.93;100812.56;4958395;28;10509;-76
2023/05/16 02:49:01;;;;;;;;;;;;;;;12.78;56.79;100817.63;4944234;28;6947;-73
2023/05/16 02:51:27;;;;;;;;;;;;;;;12.78;57.04;100827.03;4958903;28;6879;-74
2023/05/16 02:53:55;;;;;;;;;;;;;;;12.76;57.08;100826.97;4963914;28;7857;-74
2023/05/16 02:56:21;;;;;;;;;;;;;;;12.76;56.90;100832.09;4974727;28;6939;-76
2023/05/16 02:58:49;;;;;;;;;;;;;;;12.75;57.46;100830.34;4964094;28;6942;-73
2023/05/16 03:01:16;;;;;;;;;;;;;;;12.74;57.34;100835.41;4964857;28;7406;-77
2023/05/16 03:03:41;;;;;;;;;;;;;;;12.71;57.14;100841.31;4963133;28;7158;-76
2023/05/16 03:06:07;;;;;;;;;;;;;;;12.68;57.04;100843.72;4944118;28;8449;-73
2023/05/16 03:08:34;;;;;;;;;;;;;;;12.64;57.50;100845.28;4961008;28;6974;-76
2023/05/16 03:10:59;;;;;;;;;;;;;;;12.61;57.58;100847.72;4967060;28;7318;-73
2023/05/16 03:13:25;;;;;;;;;;;;;;;12.57;57.07;100837.22;4966761;28;6946;-75
2023/05/16 03:15:52;;;;;;;;;;;;;;;12.53;57.69;100851.59;4965088;28;6836;-75
2023/05/16 03:18:18;;;;;;;;;;;;;;;12.50;57.21;100847.19;4978300;28;6823;-76
2023/05/16 03:20:43;;;;;;;;;;;;;;;12.46;57.14;100844.44;4951401;28;8388;-77
2023/05/16 03:23:09;;;;;;;;;;;;;;;12.44;57.13;100846.03;4946492;28;6967;-78
2023/05/16 03:25:35;;;;;;;;;;;;;;;12.40;57.33;100849.28;4963689;28;7143;-76
2023/05/16 03:28:02;;;;;;;;;;;;;;;12.36;56.94;100837.97;4974741;28;7003;-77
2023/05/16 03:30:29;;;;;;;;;;;;;;;12.30;57.51;100838.56;4958474;28;7364;-78
2023/05/16 03:32:54;;;;;;;;;;;;;;;12.25;57.00;100841.72;4978383;28;6950;-78
2023/05/16 03:35:20;;;;;;;;;;;;;;;12.19;56.88;100843.16;4964335;28;6981;-75
2023/05/16 03:37:46;;;;;;;;;;;;;;;12.13;57.18;100849.69;4949649;28;7139;-74
2023/05/16 03:40:12;;;;;;;;;;;;;;;12.08;57.45;100852.03;4980371;28;6776;-75
2023/05/16 03:42:38;;;;;;;;;;;;;;;12.04;57.61;100855.28;4959672;28;7088;-75
2023/05/16 03:45:05;;;;;;;;;;;;;;;11.97;57.13;100854.03;4974406;28;7070;-79
2023/05/16 03:47:32;;;;;;;;;;;;;;;11.93;57.39;100862.41;4957638;28;7271;-78
2023/05/16 03:49:57;;;;;;;;;;;;;;;11.89;57.71;100866.50;4941390;28;7191;-74
2023/05/16 03:52:23;;;;;;;;;;;;;;;11.85;58.09;100873.97;4953936;28;6777;-75
2023/05/16 03:54:49;;;;;;;;;;;;;;;11.80;57.54;100868.59;4960715;28;7173;-78
2023/05/16 03:57:15;;;;;;;;;;;;;;;11.76;57.69;100877.84;4956866;28;6949;-76
2023/05/16 03:59:41;;;;;;;;;;;;;;;11.74;57.65;100878.59;4970557;28;7259;-75
2023/05/16 04:02:07;;;;;;;;;;;;;;;11.70;57.94;100881.78;4952514;28;8498;-75
2023/05/16 04:04:33;;;;;;;;;;;;;;;11.68;57.68;100884.28;4949216;28;6970;-79
2023/05/16 04:07:00;;;;;;;;;;;;;;;11.67;58.28;100890.22;4955420;28;9739;-78
2023/05/16 04:09:25;;;;;;;;;;;;;;;11.65;57.90;100897.84;4965831;28;8043;-76
2023/05/16 04:11:51;;;;;;;;;;;;;;;11.63;58.39;100891.72;4956140;28;8563;-78
2023/05/16 04:14:17;;;;;;;;;;;;;;;11.63;58.38;100896.88;4962537;28;6917;-79
2023/05/16 04:16:42;;;;;;;;;;;;;;;11.63;57.94;100903.72;4977052;28;7047;-74
2023/05/16 04:19:08;;;;;;;;;;;;;;;11.62;58.20;100907.94;4973425;28;6989;-74
2023/05/16 04:21:35;;;;;;;;;;;;;;;11.62;58.67;100907.94;4959222;28;6919;-76
2023/05/16 04:24:01;;;;;;;;;;;;;;;11.65;58.70;100909.78;4949026;28;10701;-74
2023/05/16 04:26:26;;;;;;;;;;;;;;;11.70;58.86;100913.50;4980962;28;9886;-75
2023/05/16 04:28:52;;;;;;;;;;;;;;;11.80;59.55;100912.28;4947765;28;9911;-75
2023/05/16 04:31:18;;;;;;;;;;;;;;;11.90;59.45;100916.22;4947975;28;9966;-74
2023/05/16 04:33:44;;;;;;;;;;;;;;;12.00;59.40;100914.97;4968783;28;6813;-75
2023/05/16 04:36:10;;;;;;;;;;;;;;;12.12;59.28;100919.88;4941644;28;7027;-73
2023/05/16 04:38:36;;;;;;;;;;;;;;;12.21;59.25;100917.78;4959413;28;7181;-74
2023/05/16 04:41:02;;;;;;;;;;;;;;;12.30;59.39;100922.47;4952856;28;8478;-76
2023/05/16 04:43:29;;;;;;;;;;;;;;;12.35;58.39;100933.88;4952511;28;6798;-73
2023/05/16 04:45:54;;;;;;;;;;;;;;;12.35;58.02;100927.03;4953358;28;6812;-73
2023/05/16 04:48:20;;;;;;;;;;;;;;;12.38;57.87;100933.16;4972972;28;7180;-74
2023/05/16 04:50:46;;;;;;;;;;;;;;;12.41;58.77;100930.72;4938722;28;7044;-73
2023/05/16 04:53:13;;;;;;;;;;;;;;;12.47;58.31;100934.47;4940074;28;7172;-73
2023/05/16 04:55:39;;;;;;;;;;;;;;;12.62;59.36;100934.31;4954515;28;7322;-77
2023/05/16 04:58:05;;;;;;;;;;;;;;;12.84;59.82;100940.47;4953391;28;9917;-75
2023/05/16 05:00:31;;;;;;;;;;;;;;;13.14;59.93;100940.19;4954698;28;6959;-74
2023/05/16 05:02:57;;;;;;;;;;;;;;;13.47;60.72;100942.56;4941692;28;6938;-77
2023/05/16 05:05:22;;;;;;;;;;;;;;;13.81;60.36;100955.13;4974123;28;7173;-75
2023/05/16 05:07:48;;;;;;;;;;;;;;;14.04;58.83;100953.56;4941707;28;8491;-75
2023/05/16 05:10:14;;;;;;;;;;;;;;;14.18;58.10;100959.31;4956177;28;7176;-74
2023/05/16 05:12:39;;;;;;;;;;;;;;;14.22;57.68;100956.06;4961788;28;6788;-75
2023/05/16 05:15:06;;;;;;;;;;;;;;;14.21;56.90;100955.97;4964884;28;7098;-74
2023/05/16 05:17:32;;;;;;;;;;;;;;;14.17;56.64;100960.13;4959017;28;6800;-74
2023/05/16 05:19:57;;;;;;;;;;;;;;;14.10;56.21;100964.13;4961159;28;8761;-77
2023/05/16 05:22:23;;;;;;;;;;;;;;;14.05;56.49;100967.34;4975416;28;6788;-78
2023/05/16 05:24:49;;;;;;;;;;;;;;;13.97;55.90;100970.47;4977053;28;6947;-75
2023/05/16 05:27:14;;;;;;;;;;;;;;;13.95;56.18;100968.63;4936759;28;7019;-73
2023/05/16 05:29:40;;;;;;;;;;;;;;;13.91;56.39;100967.63;4956788;28;8595;-75
2023/05/16 05:32:07;;;;;;;;;;;;;;;13.94;56.32;100978.06;4979206;28;10466;-75
2023/05/16 05:34:33;;;;;;;;;;;;;;;13.98;57.05;100973.94;4957334;28;7000;-75
2023/05/16 05:36:58;;;;;;;;;;;;;;;14.09;57.62;100977.84;4962317;28;7043;-76
2023/05/16 05:39:24;;;;;;;;;;;;;;;14.34;57.99;100976.31;4958473;28;6935;-77
2023/05/16 05:41:50;;;;;;;;;;;;;;;14.64;58.43;100980.09;4952963;28;6997;-76
2023/05/16 05:44:16;;;;;;;;;;;;;;;14.93;57.25;100978.72;4954872;28;6780;-76
2023/05/16 05:46:42;;;;;;;;;;;;;;;15.16;56.38;100977.81;4939760;28;6876;-77
2023/05/16 05:49:07;;;;;;;;;;;;;;;15.32;56.06;100976.72;4953045;28;6975;-76
2023/05/16 05:51:33;;;;;;;;;;;;;;;15.41;55.32;100984.81;4955578;28;7274;-76
2023/05/16 05:54:00;;;;;;;;;;;;;;;15.43;54.23;100984.84;4958013;28;7194;-76
2023/05/16 05:56:26;;;;;;;;;;;;;;;15.42;54.38;100981.41;4947313;28;7253;-76
2023/05/16 05:58:52;;;;;;;;;;;;;;;15.37;53.56;100986.41;4963865;28;7368;-76
2023/05/16 06:01:19;;;;;;;;;;;;;;;15.32;53.29;100990.50;4961518;28;7157;-77
2023/05/16 06:03:46;;;;;;;;;;;;;;;15.28;53.47;100989.50;4952107;28;6823;-76
2023/05/16 06:06:11;;;;;;;;;;;;;;;15.25;53.02;100984.22;4963719;28;7016;-76
2023/05/16 06:08:37;;;;;;;;;;;;;;;15.24;53.56;100994.50;4978750;28;6814;-76
2023/05/16 06:11:02;;;;;;;;;;;;;;;15.22;53.44;100989.28;4957198;28;7282;-76
2023/05/16 06:13:28;;;;;;;;;;;;;;;15.20;52.55;100984.88;4963078;28;6772;-77
2023/05/16 06:15:54;;;;;;;;;;;;;;;15.17;53.00;100995.09;4957684;28;7723;-77
2023/05/16 06:18:20;;;;;;;;;;;;;;;15.12;52.68;101002.66;4977131;28;7156;-76
2023/05/16 06:20:46;;;;;;;;;;;;;;;15.09;52.22;101003.41;4965434;28;6785;-76
2023/05/16 06:23:11;;;;;;;;;;;;;;;15.05;52.70;101013.56;4963929;28;6808;-76
2023/05/16 06:25:37;;;;;;;;;;;;;;;15.05;52.83;101014.44;4964906;28;6776;-76
2023/05/16 06:28:03;;;;;;;;;;;;;;;15.06;52.34;101007.59;4979824;28;6848;-76
2023/05/16 06:30:29;;;;;;;;;;;;;;;15.02;52.22;101010.84;4966793;28;6788;-76
2023/05/16 06:32:54;;;;;;;;;;;;;;;15.02;52.32;101010.84;4969472;28;6841;-76
2023/05/16 06:35:20;;;;;;;;;;;;;;;15.04;52.87;101017.84;4981007;28;7015;-77
2023/05/16 06:37:46;;;;;;;;;;;;;;;15.09;53.06;101015.44;4968510;28;6827;-76
2023/05/16 06:40:12;;;;;;;;;;;;;;;15.14;52.88;101012.22;4962039;28;6773;-76
2023/05/16 06:42:37;;;;;;;;;;;;;;;15.19;52.67;101019.28;4967998;28;6760;-76
2023/05/16 06:45:03;;;;;;;;;;;;;;;15.24;52.75;101018.63;4966372;28;6947;-76
2023/05/16 06:47:29;;;;;;;;;;;;;;;15.31;52.30;101013.72;4967824;28;6788;-76
2023/05/16 06:49:55;;;;;;;;;;;;;;;15.41;52.89;101016.69;4951035;28;7231;-76
2023/05/16 06:52:20;;;;;;;;;;;;;;;15.56;52.81;101010.34;4957788;28;7147;-76
2023/05/16 06:54:46;;;;;;;;;;;;;;;15.69;52.68;101015.13;4964136;28;7122;-76
2023/05/16 06:57:12;;;;;;;;;;;;;;;15.80;52.16;101006.88;4981663;28;6773;-77
2023/05/16 06:59:38;;;;;;;;;;;;;;;15.90;52.15;101011.59;4962654;28;6832;-76
2023/05/16 07:02:04;;;;;;;;;;;;;;;15.98;51.68;101013.59;4964133;28;7012;-76
2023/05/16 07:04:30;;;;;;;;;;;;;;;16.03;51.23;101017.19;4973815;28;7174;-76
2023/05/16 07:06:56;;;;;;;;;;;;;;;16.03;50.92;101014.59;4966619;28;7240;-76
2023/05/16 07:09:22;;;;;;;;;;;;;;;16.02;50.99;101012.84;4950622;28;7034;-76
2023/05/16 07:11:47;;;;;;;;;;;;;;;15.99;50.54;101016.22;4968592;28;6970;-76
2023/05/16 07:14:13;;;;;;;;;;;;;;;15.96;51.01;101017.00;4963626;28;6971;-77
2023/05/16 07:16:39;;;;;;;;;;;;;;;15.92;50.95;101025.44;4983836;28;7201;-76
2023/05/16 07:19:04;;;;;;;;;;;;;;;15.83;50.30;101025.09;4983028;28;6952;-76
2023/05/16 07:21:30;;;;;;;;;;;;;;;15.70;50.17;101023.78;4986074;28;7131;-76
2023/05/16 07:23:56;;;;;;;;;;;;;;;15.56;49.96;101031.00;4983705;28;7118;-76
2023/05/16 07:26:22;;;;;;;;;;;;;;;15.35;49.75;101034.50;4963465;28;7126;-76
2023/05/16 07:28:49;;;;;;;;;;;;;;;15.12;49.96;101042.25;4965147;28;7164;-76
2023/05/16 07:31:16;;;;;;;;;;;;;;;14.96;49.87;101042.44;4966064;28;6987;-77
2023/05/16 07:33:41;;;;;;;;;;;;;;;14.88;49.71;101049.03;4962889;28;7032;-76
2023/05/16 07:36:09;;;;;;;;;;;;;;;14.88;50.47;101039.56;4963889;28;7043;-76
2023/05/16 07:38:35;;;;;;;;;;;;;;;14.94;49.94;101044.09;4966786;28;7292;-76
2023/05/16 07:41:00;;;;;;;;;;;;;;;14.97;50.01;101044.25;4961025;28;6788;-76
2023/05/16 07:43:26;;;;;;;;;;;;;;;15.00;49.98;101042.63;4965164;28;7128;-76
2023/05/16 07:45:52;;;;;;;;;;;;;;;15.13;50.49;101046.59;4954474;28;6963;-77
2023/05/16 07:48:18;;;;;;;;;;;;;;;15.45;51.07;101035.75;4945263;28;6958;-76
2023/05/16 07:50:43;;;;;;;;;;;;;;;15.76;51.18;101034.31;4966006;28;8114;-77
2023/05/16 07:53:09;;;;;;;;;;;;;;;16.05;50.72;101033.66;4964378;28;6781;-76
2023/05/16 07:55:35;;;;;;;;;;;;;;;16.31;49.93;101034.56;4968191;28;7337;-76
2023/05/16 07:58:00;;;;;;;;;;;;;;;16.60;49.88;101036.38;4952197;28;6958;-76
2023/05/16 08:00:26;;;;;;;;;;;;;;;16.91;49.75;101037.41;4976160;28;7836;-76
2023/05/16 08:02:52;;;;;;;;;;;;;;;17.28;49.42;101028.19;4961438;28;7219;-76
2023/05/16 08:05:17;;;;;;;;;;;;;;;17.56;48.25;101034.22;4958894;28;7157;-76
2023/05/16 08:07:43;;;;;;;;;;;;;;;17.62;47.25;101042.19;4945749;28;6976;-76
2023/05/16 08:10:09;;;;;;;;;;;;;;;17.55;46.47;101044.56;4968481;28;6922;-75
2023/05/16 08:12:35;;;;;;;;;;;;;;;17.43;45.83;101045.06;4946527;28;6951;-76
2023/05/16 08:15:01;;;;;;;;;;;;;;;17.23;45.78;101050.50;4979566;28;7235;-77
2023/05/16 08:17:27;;;;;;;;;;;;;;;17.00;45.79;101044.56;4962042;28;7262;-76
2023/05/16 08:19:53;;;;;;;;;;;;;;;16.81;46.10;101046.56;4980060;28;7063;-76
2023/05/16 08:22:18;;;;;;;;;;;;;;;16.68;46.15;101047.88;4958563;28;7237;-76
2023/05/16 08:24:44;;;;;;;;;;;;;;;16.56;45.75;101045.75;4965965;28;6776;-76
2023/05/16 08:27:10;;;;;;;;;;;;;;;16.58;46.49;101048.38;4957002;28;10413;-80
2023/05/16 08:29:36;;;;;;;;;;;;;;;16.73;47.15;101037.66;4975645;28;7204;-84
2023/05/16 08:32:02;;;;;;;;;;;;;;;17.00;47.00;101032.56;4962996;28;6974;-84
2023/05/16 08:34:30;;;;;;;;;;;;;;;17.45;46.29;101035.63;4956686;28;6784;-80
2023/05/16 08:36:56;;;;;;;;;;;;;;;17.93;44.88;101034.41;4961031;28;6860;-81
2023/05/16 08:39:22;;;;;;;;;;;;;;;18.50;44.26;101036.78;4974418;28;7083;-80
2023/05/16 08:41:48;;;;;;;;;;;;;;;19.02;43.54;101034.63;4948815;28;6985;-83
2023/05/16 08:44:20;;;;;;;;;;;;;;;19.53;43.04;101025.34;4963091;28;6864;-77
2023/05/16 08:46:51;;;;;;;;;;;;;;;20.00;41.15;101028.00;4958102;28;6820;-83
2023/05/16 08:49:18;;;;;;;;;;;;;;;20.36;40.59;101019.13;4939632;28;7512;-83
2023/05/16 08:51:46;;;;;;;;;;;;;;;20.78;40.31;101015.47;4977879;28;8292;-80
2023/05/16 08:54:15;;;;;;;;;;;;;;;21.15;39.38;101028.22;4964734;28;8625;-83
2023/05/16 08:56:42;;;;;;;;;;;;;;;20.95;38.89;101034.00;4964795;28;7327;-81
2023/05/16 08:59:08;;;;;;;;;;;;;;;20.49;38.57;101036.69;4949982;28;6979;-81
2023/05/16 09:01:35;;;;;;;;;;;;;;;20.02;38.68;101029.81;4977266;28;6816;-80
2023/05/16 09:04:02;;;;;;;;;;;;;;;19.49;38.73;101038.25;4957538;28;6864;-80
2023/05/16 09:06:28;;;;;;;;;;;;;;;18.96;39.14;101044.81;4960724;28;7021;-83
2023/05/16 09:08:54;;;;;;;;;;;;;;;18.62;39.18;101049.19;4964132;28;7068;-83
2023/05/16 09:11:20;;;;;;;;;;;;;;;18.72;39.95;101043.41;4975903;28;6852;-81
2023/05/16 09:13:47;;;;;;;;;;;;;;;19.22;39.85;101034.19;4974512;28;7264;-81
2023/05/16 09:16:15;;;;;;;;;;;;;;;19.85;39.99;101022.50;4961026;28;6792;-80
2023/05/16 09:18:46;;;;;;;;;;;;;;;20.52;39.06;101020.25;4960656;28;6808;-79
2023/05/16 09:21:12;;;;;;;;;;;;;;;21.09;38.15;101018.56;4981017;28;7166;-79
2023/05/16 09:23:38;;;;;;;;;;;;;;;21.54;36.90;101022.66;4962798;28;7038;-82
2023/05/16 09:26:07;;;;;;;;;;;;;;;21.96;36.71;101007.47;4961747;28;6780;-80
2023/05/16 09:28:35;;;;;;;;;;;;;;;22.34;36.07;101015.69;4943717;28;7265;-83
2023/05/16 09:31:01;;;;;;;;;;;;;;;22.32;35.16;101022.66;4941313;28;7029;-78
2023/05/16 09:33:28;;;;;;;;;;;;;;;21.91;35.29;101026.59;4960854;28;6784;-82
2023/05/16 09:36:03;;;;;;;;;;;;;;;21.33;35.74;101016.28;4944223;28;6987;-77
2023/05/16 09:38:28;;;;;;;;;;;;;;;20.71;35.94;101021.44;4961762;28;7056;-81
2023/05/16 09:40:54;;;;;;;;;;;;;;;20.18;36.07;101030.97;4964655;28;7813;-81
2023/05/16 09:43:25;;;;;;;;;;;;;;;19.89;36.91;101027.75;4964560;28;6819;-80
2023/05/16 09:45:52;;;;;;;;;;;;;;;19.82;36.91;101031.97;4963918;28;6995;-76
2023/05/16 09:48:20;;;;;;;;;;;;;;;19.77;37.00;101025.81;4955894;28;6796;-82
2023/05/16 09:50:51;;;;;;;;;;;;;;;19.70;37.36;101022.19;4941917;28;7022;-78
2023/05/16 09:53:26;;;;;;;;;;;;;;;19.93;36.95;101027.88;4957199;28;8390;-77
2023/05/16 09:55:59;;;;;;;;;;;;;;;19.97;36.62;101021.03;4973736;28;6820;-79
2023/05/16 09:58:34;;;;;;;;;;;;;;;19.91;36.59;101020.88;4977827;28;7005;-81
2023/05/16 10:01:01;;;;;;;;;;;;;;;20.17;37.12;101017.91;4975763;28;6998;-82
2023/05/16 10:03:28;;;;;;;;;;;;;;;20.65;37.16;101017.00;4949616;28;7171;-80
2023/05/16 10:05:55;;;;;;;;;;;;;;;21.48;36.73;101021.69;4963796;28;6800;-78
2023/05/16 10:08:24;;;;;;;;;;;;;;;22.50;35.76;101021.06;4976727;28;7028;-79
2023/05/16 10:10:55;;;;;;;;;;;;;;;23.39;34.17;101013.84;4962824;28;7041;-82
2023/05/16 10:13:28;;;;;;;;;;;;;;;23.93;33.67;101008.78;4958150;28;6819;-80
2023/05/16 10:15:56;;;;;;;;;;;;;;;24.43;33.01;101011.47;4945201;28;7006;-80
2023/05/16 10:18:29;;;;;;;;;;;;;;;24.81;32.04;101002.75;4960004;28;6880;-82
2023/05/16 10:21:03;;;;;;;;;;;;;;;24.97;31.00;101002.72;4959761;28;6994;-82
2023/05/16 10:23:31;;;;;;;;;;;;;;;25.20;31.13;101014.91;4962457;28;6919;-82
2023/05/16 10:26:01;;;;;;;;;;;;;;;25.53;30.32;101013.06;4980169;28;6945;-79
2023/05/16 10:28:28;;;;;;;;;;;;;;;25.82;29.88;101017.28;4949367;28;8543;-80
2023/05/16 10:30:55;;;;;;;;;;;;;;;25.55;29.55;101006.06;4969679;28;7048;-81
2023/05/16 10:33:21;;;;;;;;;;;;;;;24.99;29.50;101013.22;4965898;28;8529;-82
2023/05/16 10:35:46;;;;;;;;;;;;;;;24.26;30.41;101011.47;4962131;28;6992;-82
2023/05/16 10:38:16;;;;;;;;;;;;;;;23.42;30.39;101013.88;4960681;28;7082;-79
2023/05/16 10:40:44;;;;;;;;;;;;;;;22.91;30.83;101016.16;4968840;28;6788;-79
2023/05/16 10:43:09;;;;;;;;;;;;;;;22.97;30.57;101016.19;4960277;28;6812;-80
2023/05/16 10:45:42;;;;;;;;;;;;;;;23.27;30.42;101009.38;4976201;28;6977;-75
2023/05/16 10:48:11;;;;;;;;;;;;;;;23.63;29.72;101006.97;4960426;28;6804;-81
2023/05/16 10:50:42;;;;;;;;;;;;;;;23.82;29.67;100997.41;4961394;28;7039;-82
2023/05/16 10:53:32;;;;;;;;;;;;;;;24.12;29.30;100990.53;4966339;28;6866;-79
2023/05/16 10:55:57;;;;;;;;;;;;;;;24.67;28.91;100991.41;4964123;28;6965;-81
2023/05/16 10:58:33;;;;;;;;;;;;;;;25.06;28.32;101001.81;4969211;28;7043;-82
2023/05/16 11:01:29;;;;;;;;;;;;;;;25.24;28.20;100996.53;4967571;28;6824;-81
2023/05/16 11:04:03;;;;;;;;;;;;;;;25.27;27.87;100993.03;4987521;28;6848;-78
2023/05/16 11:06:34;;;;;;;;;;;;;;;25.28;28.06;100989.50;4990988;28;7087;-80
2023/05/16 11:09:07;;;;;;;;;;;;;;;25.67;28.32;100983.25;4972571;28;6772;-81
2023/05/16 11:11:39;;;;;;;;;;;;;;;26.32;28.38;100986.34;4963764;28;6816;-82
2023/05/16 11:14:05;;;;;;;;;;;;;;;26.87;27.43;100993.72;4971144;28;6816;-82
2023/05/16 11:16:34;;;;;;;;;;;;;;;27.05;26.97;100983.94;4975244;28;6954;-80
2023/05/16 11:19:05;;;;;;;;;;;;;;;26.86;27.24;100973.56;4981039;28;7163;-77
2023/05/16 11:22:10;;;;;;;;;;;;;;;27.02;27.14;100979.56;4967544;28;7420;-77
2023/05/16 11:24:38;;;;;;;;;;;;;;;27.01;26.78;100978.69;4963412;28;6796;-78
2023/05/16 11:27:05;;;;;;;;;;;;;;;26.91;26.43;100979.66;4954463;28;7000;-77
2023/05/16 11:29:34;;;;;;;;;;;;;;;26.70;26.54;100983.34;4959920;28;7874;-77
2023/05/16 11:32:01;;;;;;;;;;;;;;;26.52;26.16;100989.66;4961780;28;6955;-78
2023/05/16 11:34:28;;;;;;;;;;;;;;;26.09;26.45;100994.38;4964424;28;6792;-78
2023/05/16 11:36:55;;;;;;;;;;;;;;;26.03;26.86;100991.78;4983300;28;7062;-78
2023/05/16 11:39:23;;;;;;;;;;;;;;;26.11;26.82;100984.72;4982380;28;7204;-78
2023/05/16 11:41:50;;;;;;;;;;;;;;;25.84;26.48;100993.66;4985289;28;6995;-77
2023/05/16 11:44:16;;;;;;;;;;;;;;;25.10;26.39;100999.19;4952314;28;7170;-77
2023/05/16 11:46:42;;;;;;;;;;;;;;;24.27;27.51;100993.16;4963112;28;6936;-78
2023/05/16 11:49:11;;;;;;;;;;;;;;;23.62;27.65;101006.09;4966563;28;6776;-78
2023/05/16 11:51:42;;;;;;;;;;;;;;;23.08;27.95;101009.31;4965452;28;7016;-77
2023/05/16 11:54:12;;;;;;;;;;;;;;;22.77;28.37;101018.69;4967812;28;7063;-78
2023/05/16 11:56:40;;;;;;;;;;;;;;;22.62;28.71;101017.69;4970480;28;6964;-77
2023/05/16 11:59:06;;;;;;;;;;;;;;;22.48;28.89;101021.03;4967642;28;7224;-78
2023/05/16 12:01:38;;;;;;;;;;;;;;;22.15;29.14;101017.25;4957609;28;7218;-77
2023/05/16 12:04:15;;;;;;;;;;;;;;;21.74;29.56;101021.19;4964380;28;6861;-77
2023/05/16 12:06:47;;;;;;;;;;;;;;;21.65;30.14;101015.81;4975771;28;8527;-78
2023/05/16 12:09:14;;;;;;;;;;;;;;;21.75;30.27;101009.00;4980010;28;7014;-78
2023/05/16 12:11:43;;;;;;;;;;;;;;;21.80;29.88;101011.66;4962426;28;6840;-77
2023/05/16 12:14:12;;;;;;;;;;;;;;;22.17;29.87;101010.31;4960634;28;6941;-76
2023/05/16 12:16:41;;;;;;;;;;;;;;;22.72;29.24;101010.81;4968724;28;6858;-76
2023/05/16 12:19:08;;;;;;;;;;;;;;;23.39;29.02;100996.41;4969549;28;7003;-76
2023/05/16 12:21:35;;;;;;;;;;;;;;;24.16;28.28;100983.53;4967118;28;6796;-76
2023/05/16 12:24:01;;;;;;;;;;;;;;;24.86;28.40;100994.88;4965743;28;6808;-76
2023/05/16 12:26:32;;;;;;;;;;;;;;;25.42;27.46;100981.59;4962332;28;6792;-76
2023/05/16 12:29:04;;;;;;;;;;;;;;;25.21;27.06;100995.69;4961090;28;6796;-76
2023/05/16 12:31:35;;;;;;;;;;;;;;;24.86;26.79;100991.41;4967453;28;6989;-76
2023/05/16 12:34:01;;;;;;;;;;;;;;;24.76;26.86;100988.75;4966764;28;7074;-76
2023/05/16 12:36:33;;;;;;;;;;;;;;;24.31;27.16;100986.19;4963389;28;6776;-76
2023/05/16 12:39:02;;;;;;;;;;;;;;;23.76;27.50;100986.91;4968272;28;6808;-76
2023/05/16 12:41:30;;;;;;;;;;;;;;;23.24;27.49;100996.31;4961676;28;6863;-75
2023/05/16 12:44:11;;;;;;;;;;;;;;;22.66;28.18;101005.53;4956303;28;7129;-75
2023/05/16 12:46:44;;;;;;;;;;;;;;;22.12;28.36;101013.75;4958360;28;9033;-75
2023/05/16 12:49:11;;;;;;;;;;;;;;;21.62;28.52;101006.22;4961155;28;7188;-76
2023/05/16 12:51:37;;;;;;;;;;;;;;;21.21;29.14;101017.88;4960411;28;7643;-76
2023/05/16 12:54:11;;;;;;;;;;;;;;;20.94;29.28;101016.59;4969645;28;7115;-76